Meteo Giornale » Osservazioni meteo Stati Uniti (USA) » Los Angeles

ore: 04:53 - Osservazioni Meteo Los Angeles
Lat. 33° 56' N Lon. 118° 23' W Alt. 38 metri s.l.m.

sereno America/Los_Angeles

14 °C

Sereno

Temp. 24 Ore

14 °C

26 °C

Est

7.4 Km/h

Dew point 5 °C

Umidità 54 %

Visibilità  10 Km

Il sole sorge alle ore 06:02

Il sole tramonta alle ore 19:38

Data e Ora Cielo e Fenomeni T °C DP °C Um. % Pres. hPa Vis. km Vento km/h
Oggi h: 04:53 sereno Sereno 14 5 54 1017 10 E 7.4
Oggi h: 03:53 sereno Sereno 15 5 51 1017 10 E/NE 7.4
Oggi h: 02:53 sereno Sereno 16 6 51 1017 10 N 0
Oggi h: 01:53 sereno Sereno 17 7 51 1018 10 N 0
Oggi h: 00:53 sereno Sereno 17 7 51 1017 10 SE 14.8
Ieri h: 23:53 sereno Sereno 17 7 51 1017 10 S/SE 7.4
Ieri h: 22:53 sereno Sereno 17 7 51 1017 10 N 0
Ieri h: 21:53 sereno Sereno 17 8 55 1017 10 O 14.8
Ieri h: 20:53 sereno Sereno 17 8 55 1016 10 O 20.3
Ieri h: 19:53 sereno Sereno 18 7 48 1016 10 O 24
Ieri h: 18:53 sereno Sereno 18 7 48 1015 10 O/SO 27.8
Ieri h: 17:53 sereno Sereno 20 6 39 1015 10 O 33.3
Ieri h: 16:53 sereno Sereno 21 7 40 1015 10 O 33.3
Ieri h: 15:53 sereno Sereno 21 7 40 1015 10 O 35.2
Ieri h: 14:53 sereno Sereno 26 -2 15 1016 10 O 24
Ieri h: 13:53 sereno Sereno 26 -4 13 1016 10 O/SO 24
Ieri h: 12:53 sereno Sereno 26 -8 9 1016 10 O/SO 22.2
Ieri h: 11:53 sereno Sereno 26 -8 9 1016 10 O/SO 18.5
Ieri h: 10:53 sereno Sereno 25 -8 10 1016 10 O 14.8
Ieri h: 09:53 sereno Sereno 24 -9 10 1016 10 N 7.4
Ieri h: 08:53 sereno Sereno 22 -8 12 1016 10 S 9.3
Ieri h: 07:53 sereno Sereno 21 -7 14 1015 10 S 9.3
Ieri h: 06:53 sereno Sereno 19 -9 14 1014 10 N/NO 9.3
Ieri h: 05:53 sereno Sereno 18 -8 16 1014 10 N 5.5